1990 EDISOANA (1990058S16075)


On this page: IBTrACS data - Map and Plots - Positions - Intensities - Original source data

Summary

Start Feb 26
End Mar 8
Basin SI
LMI 100 kt
Sources jtwc_sh
reunion
neumann
In WMO? Yes
Related storms 1990059S16073
Previous storm 1990 VINCENT (SI)
Previous in basin 1990 VINCENT (SI)
Concurrent storms 1990 VINCENT (SI)
1990 EDISOANA (SI)
1990 GREG (SP)
1990 EDISOANA (SI)
1990 HILDA (SP)
1990 GREGOARA (SI)
1990 FELANA (SI)
Next in basin 1990 EDISOANA (SI)
Next storm 1990 GREG (SP)

top of page IBTrACS Data: File Access

top of page HURSAT Data: File Access

Image of storm

top of page Plots:

Map of storm track will not appear if FTP is down
Time series of cyclone Maximum Sustained Wind will not appear if FTP is down
Time series of cyclone Minimum Central Pressure will not appear if FTP is down

top of page Track Data:Position

jtwc_sh reunion neumann
Date Lat Lon Lat Lon Lat Lon
1990-02-26 18:00:00 -16.0 75.0 -16.0 75.0
1990-02-27 00:00:00 -15.4 74.0 -15.4 74.0
1990-02-27 06:00:00 -14.8 73.1 -14.8 73.1
1990-02-27 12:00:00 -14.4 72.2 -14.4 72.2
1990-02-27 18:00:00 -14.4 71.4 -14.4 71.4
1990-02-28 00:00:00 -14.8 70.9 -14.8 70.9
1990-02-28 06:00:00 -15.2 70.4 -15.2 70.4
1990-02-28 12:00:00 -15.6 69.6 -15.6 69.6
1990-02-28 18:00:00 -15.6 68.0 -15.6 68.0
1990-03-01 00:00:00 -15.5 66.5 -15.5 66.5
1990-03-01 06:00:00 -15.2 65.3 -15.2 65.3
1990-03-01 12:00:00 -14.9 64.2 -14.2 66.2 -14.9 64.2
1990-03-01 18:00:00 -14.7 63.5 -14.7 64.8 -14.7 63.5
1990-03-02 00:00:00 -14.7 63.0 -14.8 63.6 -14.7 63.0
1990-03-02 06:00:00 -15.0 63.0 -14.9 62.3 -15.0 63.0
1990-03-02 12:00:00 -15.3 63.0 -15.1 62.0 -15.3 63.0
1990-03-02 18:00:00 -15.4 62.9 -15.5 62.0 -15.4 62.9
1990-03-03 00:00:00 -15.5 62.7 -15.9 62.1 -15.5 62.7
1990-03-03 06:00:00 -15.6 62.5 -16.2 62.2 -15.6 62.5
1990-03-03 12:00:00 -15.9 62.4 -16.8 62.2 -15.9 62.4
1990-03-03 18:00:00 -16.3 62.3 -17.0 62.0 -16.3 62.3
1990-03-04 00:00:00 -16.8 62.0 -17.2 61.8 -16.8 62.0
1990-03-04 06:00:00 -17.2 61.6 -17.6 61.3 -17.2 61.6
1990-03-04 12:00:00 -17.4 61.2 -17.8 61.2 -17.4 61.2
1990-03-04 18:00:00 -17.5 61.2 -18.0 61.2 -17.5 61.2
jtwc_sh reunion neumann
1990-03-05 00:00:00 -17.8 61.1 -18.2 61.2 -17.8 61.1
1990-03-05 06:00:00 -18.1 61.1 -18.3 61.2 -18.1 61.1
1990-03-05 12:00:00 -18.5 61.1 -18.9 61.2 -18.5 61.1
1990-03-05 18:00:00 -19.1 61.2 -19.3 61.3 -19.1 61.2
1990-03-06 00:00:00 -19.9 61.2 -20.0 61.3 -19.9 61.2
1990-03-06 06:00:00 -20.8 61.2 -20.8 61.3 -20.8 61.2
1990-03-06 12:00:00 -22.2 61.2 -22.2 61.2 -22.2 61.2
1990-03-06 18:00:00 -24.1 61.6 -24.0 61.7 -24.1 61.6
1990-03-07 00:00:00 -26.1 62.1 -26.0 62.2 -26.1 62.1
1990-03-07 06:00:00 -28.6 62.4 -28.7 62.7 -28.6 62.4
1990-03-07 12:00:00 -31.4 62.5 -31.7 63.1 -31.4 62.5
1990-03-07 18:00:00 -34.2 62.8 -33.8 63.7 -34.2 62.8
1990-03-08 00:00:00 -36.2 63.3 -35.5 63.5 -36.2 63.3
1990-03-08 06:00:00 -38.7 64.2 -37.0 63.2 -38.7 64.2

top of pageTrack Data:Intensity

jtwc_sh reunion neumann
Date Wind Pres Wind Pres Wind Pres
1990-02-26 18:00:00 20. 20.
1990-02-27 00:00:00 20. 20.
1990-02-27 06:00:00 20. 20.
1990-02-27 12:00:00 20. 20.
1990-02-27 18:00:00 20. 20.
1990-02-28 00:00:00 20. 20.
1990-02-28 06:00:00 20. 20.
1990-02-28 12:00:00 20. 20.
1990-02-28 18:00:00 20. 20.
1990-03-01 00:00:00 25. 25.
1990-03-01 06:00:00 30. 30.
1990-03-01 12:00:00 30. 28. 997. 30.
1990-03-01 18:00:00 30. 28. 997. 30.
1990-03-02 00:00:00 35. 36. 991. 35.
1990-03-02 06:00:00 35. 36. 991. 35.
1990-03-02 12:00:00 35. 36. 991. 35.
1990-03-02 18:00:00 35. 36. 991. 35.
1990-03-03 00:00:00 40. 36. 991. 40.
1990-03-03 06:00:00 45. 36. 991. 45.
1990-03-03 12:00:00 50. 44. 984. 50.
1990-03-03 18:00:00 55. 52. 976. 55.
1990-03-04 00:00:00 60. 52. 976. 60.
1990-03-04 06:00:00 65. 52. 976. 65.
1990-03-04 12:00:00 70. 62. 966. 70.
1990-03-04 18:00:00 75. 62. 966. 75.
jtwc_sh reunion neumann
1990-03-05 00:00:00 80. 62. 966. 80.
1990-03-05 06:00:00 85. 72. 954. 85.
1990-03-05 12:00:00 85. 72. 954. 85.
1990-03-05 18:00:00 90. 72. 954. 90.
1990-03-06 00:00:00 95. 72. 954. 95.
1990-03-06 06:00:00 100. 72. 954. 100.
1990-03-06 12:00:00 95. 72. 954. 95.
1990-03-06 18:00:00 90. 72. 954. 90.
1990-03-07 00:00:00 85. 72. 954. 85.
1990-03-07 06:00:00 75. 62. 966. 75.
1990-03-07 12:00:00 60. 60.
1990-03-07 18:00:00 50. 50.
1990-03-08 00:00:00 45. 45.
1990-03-08 06:00:00 45. 45.

top of page Links to source data

Source Source file Format
jtwc_sh bsh181990.txt ATCF
reunion WMO-Best-Tracks.txt:Line=14878:edisoana WMO (old format)
neumann tracks.sh:Storm=887:EDISOANA:BSH181990:JTWC HURDAT